sensor_id;sensor_type;location;lat;lon;timestamp;P1;durP1;ratioP1;P2;durP2;ratioP2
26014;SDS011;13793;55.388;37.844;2023-07-24T00:01:47;8.55;;;6.97;;
26014;SDS011;13793;55.388;37.844;2023-07-24T00:04:29;8.10;;;6.80;;
26014;SDS011;13793;55.388;37.844;2023-07-24T00:07:00;8.43;;;7.53;;
26014;SDS011;13793;55.388;37.844;2023-07-24T00:09:41;7.90;;;6.55;;
26014;SDS011;13793;55.388;37.844;2023-07-24T00:12:13;7.55;;;6.75;;
26014;SDS011;13793;55.388;37.844;2023-07-24T00:14:53;8.28;;;7.47;;
26014;SDS011;13793;55.388;37.844;2023-07-24T00:17:24;9.78;;;7.67;;
26014;SDS011;13793;55.388;37.844;2023-07-24T00:20:06;11.65;;;7.55;;
26014;SDS011;13793;55.388;37.844;2023-07-24T00:22:37;9.10;;;7.67;;
26014;SDS011;13793;55.388;37.844;2023-07-24T00:25:19;9.13;;;7.45;;
26014;SDS011;13793;55.388;37.844;2023-07-24T00:27:50;9.95;;;7.35;;
26014;SDS011;13793;55.388;37.844;2023-07-24T00:30:31;10.90;;;7.00;;
26014;SDS011;13793;55.388;37.844;2023-07-24T00:33:02;9.28;;;7.60;;
26014;SDS011;13793;55.388;37.844;2023-07-24T00:35:43;8.88;;;7.08;;
26014;SDS011;13793;55.388;37.844;2023-07-24T00:38:14;10.15;;;6.80;;
26014;SDS011;13793;55.388;37.844;2023-07-24T00:40:55;9.33;;;7.67;;
26014;SDS011;13793;55.388;37.844;2023-07-24T00:43:26;11.65;;;7.87;;
26014;SDS011;13793;55.388;37.844;2023-07-24T00:46:07;11.20;;;8.35;;
26014;SDS011;13793;55.388;37.844;2023-07-24T00:48:39;12.75;;;7.85;;
26014;SDS011;13793;55.388;37.844;2023-07-24T00:51:20;10.03;;;8.13;;
26014;SDS011;13793;55.388;37.844;2023-07-24T00:53:52;9.85;;;8.15;;
26014;SDS011;13793;55.388;37.844;2023-07-24T00:56:34;9.53;;;8.00;;
26014;SDS011;13793;55.388;37.844;2023-07-24T00:59:05;10.15;;;9.00;;
26014;SDS011;13793;55.388;37.844;2023-07-24T01:01:47;15.80;;;8.75;;
26014;SDS011;13793;55.388;37.844;2023-07-24T01:04:18;12.37;;;8.65;;
26014;SDS011;13793;55.388;37.844;2023-07-24T01:06:59;12.07;;;7.70;;
26014;SDS011;13793;55.388;37.844;2023-07-24T01:09:30;12.00;;;8.10;;
26014;SDS011;13793;55.388;37.844;2023-07-24T01:12:22;10.48;;;7.83;;
26014;SDS011;13793;55.388;37.844;2023-07-24T01:14:59;10.00;;;8.08;;
26014;SDS011;13793;55.388;37.844;2023-07-24T01:17:48;12.80;;;7.97;;
26014;SDS011;13793;55.388;37.844;2023-07-24T01:20:20;9.40;;;7.97;;
26014;SDS011;13793;55.388;37.844;2023-07-24T01:26:10;9.35;;;6.80;;
26014;SDS011;13793;55.388;37.844;2023-07-24T01:28:51;9.95;;;6.65;;
26014;SDS011;13793;55.388;37.844;2023-07-24T01:31:23;9.25;;;6.83;;
26014;SDS011;13793;55.388;37.844;2023-07-24T01:34:03;8.53;;;6.83;;
26014;SDS011;13793;55.388;37.844;2023-07-24T01:36:34;8.30;;;6.85;;
26014;SDS011;13793;55.388;37.844;2023-07-24T01:39:16;9.90;;;7.05;;
26014;SDS011;13793;55.388;37.844;2023-07-24T01:41:48;8.58;;;7.55;;
26014;SDS011;13793;55.388;37.844;2023-07-24T01:44:30;8.90;;;7.45;;
26014;SDS011;13793;55.388;37.844;2023-07-24T01:47:01;9.60;;;7.28;;
26014;SDS011;13793;55.388;37.844;2023-07-24T01:49:42;11.48;;;7.72;;
26014;SDS011;13793;55.388;37.844;2023-07-24T01:52:24;9.35;;;7.65;;
26014;SDS011;13793;55.388;37.844;2023-07-24T01:54:55;9.33;;;7.10;;
26014;SDS011;13793;55.388;37.844;2023-07-24T01:57:36;10.85;;;7.10;;
26014;SDS011;13793;55.388;37.844;2023-07-24T02:00:17;9.43;;;7.25;;
26014;SDS011;13793;55.388;37.844;2023-07-24T02:02:50;9.63;;;7.47;;
26014;SDS011;13793;55.388;37.844;2023-07-24T02:05:37;9.83;;;6.67;;
26014;SDS011;13793;55.388;37.844;2023-07-24T02:08:08;7.85;;;6.35;;
26014;SDS011;13793;55.388;37.844;2023-07-24T02:10:49;7.92;;;6.10;;
26014;SDS011;13793;55.388;37.844;2023-07-24T02:13:30;9.95;;;6.55;;
26014;SDS011;13793;55.388;37.844;2023-07-24T02:16:01;9.38;;;6.42;;
26014;SDS011;13793;55.388;37.844;2023-07-24T02:18:42;9.53;;;6.70;;
26014;SDS011;13793;55.388;37.844;2023-07-24T02:21:14;7.33;;;6.17;;
26014;SDS011;13793;55.388;37.844;2023-07-24T02:23:54;8.88;;;6.33;;
26014;SDS011;13793;55.388;37.844;2023-07-24T02:26:25;8.43;;;6.00;;
26014;SDS011;13793;55.388;37.844;2023-07-24T02:29:06;9.75;;;6.55;;
26014;SDS011;13793;55.388;37.844;2023-07-24T02:31:37;8.55;;;6.00;;
26014;SDS011;13793;55.388;37.844;2023-07-24T02:34:18;6.87;;;5.85;;
26014;SDS011;13793;55.388;37.844;2023-07-24T02:36:51;8.88;;;5.58;;
26014;SDS011;13793;55.388;37.844;2023-07-24T02:39:32;7.78;;;5.55;;
26014;SDS011;13793;55.388;37.844;2023-07-24T02:42:03;7.10;;;5.78;;
26014;SDS011;13793;55.388;37.844;2023-07-24T02:44:44;9.35;;;5.60;;
26014;SDS011;13793;55.388;37.844;2023-07-24T02:47:15;7.53;;;5.20;;
26014;SDS011;13793;55.388;37.844;2023-07-24T02:50:03;6.58;;;5.08;;
26014;SDS011;13793;55.388;37.844;2023-07-24T02:52:34;7.08;;;5.08;;
26014;SDS011;13793;55.388;37.844;2023-07-24T02:55:15;6.67;;;4.70;;
26014;SDS011;13793;55.388;37.844;2023-07-24T02:57:46;7.70;;;4.30;;
26014;SDS011;13793;55.388;37.844;2023-07-24T03:00:28;5.10;;;4.60;;
26014;SDS011;13793;55.388;37.844;2023-07-24T03:02:58;6.42;;;4.40;;
26014;SDS011;13793;55.388;37.844;2023-07-24T03:05:45;6.33;;;5.07;;
26014;SDS011;13793;55.388;37.844;2023-07-24T03:08:16;6.08;;;4.70;;
26014;SDS011;13793;55.388;37.844;2023-07-24T03:10:57;5.28;;;4.22;;
26014;SDS011;13793;55.388;37.844;2023-07-24T03:13:28;7.20;;;4.80;;
26014;SDS011;13793;55.388;37.844;2023-07-24T03:16:16;6.47;;;5.05;;
26014;SDS011;13793;55.388;37.844;2023-07-24T03:18:48;8.03;;;4.60;;
26014;SDS011;13793;55.388;37.844;2023-07-24T03:21:29;8.35;;;5.08;;
26014;SDS011;13793;55.388;37.844;2023-07-24T03:23:59;6.33;;;4.53;;
26014;SDS011;13793;55.388;37.844;2023-07-24T03:26:40;8.85;;;5.12;;
26014;SDS011;13793;55.388;37.844;2023-07-24T03:29:11;6.62;;;4.37;;
26014;SDS011;13793;55.388;37.844;2023-07-24T03:31:52;7.03;;;4.25;;
26014;SDS011;13793;55.388;37.844;2023-07-24T03:34:23;5.87;;;4.40;;
26014;SDS011;13793;55.388;37.844;2023-07-24T03:37:05;8.75;;;4.58;;
26014;SDS011;13793;55.388;37.844;2023-07-24T03:39:36;6.67;;;4.65;;
26014;SDS011;13793;55.388;37.844;2023-07-24T03:42:27;7.78;;;4.40;;
26014;SDS011;13793;55.388;37.844;2023-07-24T03:44:59;4.90;;;3.72;;
26014;SDS011;13793;55.388;37.844;2023-07-24T03:47:41;5.83;;;4.03;;
26014;SDS011;13793;55.388;37.844;2023-07-24T03:50:11;5.00;;;3.37;;
26014;SDS011;13793;55.388;37.844;2023-07-24T03:52:52;3.83;;;3.47;;
26014;SDS011;13793;55.388;37.844;2023-07-24T03:55:23;7.95;;;3.52;;
26014;SDS011;13793;55.388;37.844;2023-07-24T03:58:04;5.50;;;3.15;;
26014;SDS011;13793;55.388;37.844;2023-07-24T04:00:35;5.47;;;3.35;;
26014;SDS011;13793;55.388;37.844;2023-07-24T04:03:15;5.80;;;3.40;;
26014;SDS011;13793;55.388;37.844;2023-07-24T04:05:46;3.95;;;3.00;;
26014;SDS011;13793;55.388;37.844;2023-07-24T04:08:28;6.05;;;3.77;;
26014;SDS011;13793;55.388;37.844;2023-07-24T04:10:58;5.03;;;3.22;;
26014;SDS011;13793;55.388;37.844;2023-07-24T04:13:39;3.62;;;3.27;;
26014;SDS011;13793;55.388;37.844;2023-07-24T04:16:10;4.00;;;3.15;;
26014;SDS011;13793;55.388;37.844;2023-07-24T04:18:51;3.95;;;2.67;;
26014;SDS011;13793;55.388;37.844;2023-07-24T04:21:22;4.08;;;2.85;;
26014;SDS011;13793;55.388;37.844;2023-07-24T04:24:03;2.75;;;2.33;;
26014;SDS011;13793;55.388;37.844;2023-07-24T04:26:34;4.08;;;2.60;;
26014;SDS011;13793;55.388;37.844;2023-07-24T04:29:16;4.83;;;2.60;;
26014;SDS011;13793;55.388;37.844;2023-07-24T04:31:47;3.55;;;2.40;;
26014;SDS011;13793;55.388;37.844;2023-07-24T04:34:28;3.80;;;2.60;;
26014;SDS011;13793;55.388;37.844;2023-07-24T04:36:59;2.55;;;2.30;;
26014;SDS011;13793;55.388;37.844;2023-07-24T04:39:40;4.45;;;2.37;;
26014;SDS011;13793;55.388;37.844;2023-07-24T04:42:11;2.52;;;2.33;;
26014;SDS011;13793;55.388;37.844;2023-07-24T04:45:11;3.55;;;2.47;;
26014;SDS011;13793;55.388;37.844;2023-07-24T04:47:42;3.40;;;2.02;;
26014;SDS011;13793;55.388;37.844;2023-07-24T04:50:23;6.30;;;2.70;;
26014;SDS011;13793;55.388;37.844;2023-07-24T04:52:54;4.30;;;2.10;;
26014;SDS011;13793;55.388;37.844;2023-07-24T04:55:35;5.92;;;1.77;;
26014;SDS011;13793;55.388;37.844;2023-07-24T04:58:06;2.50;;;2.08;;
26014;SDS011;13793;55.388;37.844;2023-07-24T05:00:47;10.93;;;5.15;;
26014;SDS011;13793;55.388;37.844;2023-07-24T05:03:18;6.72;;;4.87;;
26014;SDS011;13793;55.388;37.844;2023-07-24T05:05:59;3.95;;;2.60;;
26014;SDS011;13793;55.388;37.844;2023-07-24T05:08:40;3.92;;;1.98;;
26014;SDS011;13793;55.388;37.844;2023-07-24T05:11:11;7.80;;;5.92;;
26014;SDS011;13793;55.388;37.844;2023-07-24T05:13:51;16.45;;;11.45;;
26014;SDS011;13793;55.388;37.844;2023-07-24T05:16:23;6.53;;;4.33;;
26014;SDS011;13793;55.388;37.844;2023-07-24T05:19:04;6.00;;;2.15;;
26014;SDS011;13793;55.388;37.844;2023-07-24T05:21:34;2.00;;;1.60;;
26014;SDS011;13793;55.388;37.844;2023-07-24T05:24:15;31.12;;;18.25;;
26014;SDS011;13793;55.388;37.844;2023-07-24T05:26:46;45.90;;;25.32;;
26014;SDS011;13793;55.388;37.844;2023-07-24T05:29:27;37.88;;;25.45;;
26014;SDS011;13793;55.388;37.844;2023-07-24T05:31:58;8.15;;;5.83;;
26014;SDS011;13793;55.388;37.844;2023-07-24T05:34:39;5.95;;;2.55;;
26014;SDS011;13793;55.388;37.844;2023-07-24T05:37:10;3.90;;;2.52;;
26014;SDS011;13793;55.388;37.844;2023-07-24T05:39:52;3.50;;;1.82;;
26014;SDS011;13793;55.388;37.844;2023-07-24T05:42:23;2.10;;;1.70;;
26014;SDS011;13793;55.388;37.844;2023-07-24T05:45:04;5.05;;;3.25;;
26014;SDS011;13793;55.388;37.844;2023-07-24T05:47:36;2.87;;;1.70;;
26014;SDS011;13793;55.388;37.844;2023-07-24T05:50:17;3.02;;;1.80;;
26014;SDS011;13793;55.388;37.844;2023-07-24T05:52:48;3.12;;;1.80;;
26014;SDS011;13793;55.388;37.844;2023-07-24T05:55:29;3.37;;;2.60;;
26014;SDS011;13793;55.388;37.844;2023-07-24T05:58:00;3.47;;;2.20;;
26014;SDS011;13793;55.388;37.844;2023-07-24T06:00:41;14.25;;;12.37;;
26014;SDS011;13793;55.388;37.844;2023-07-24T06:03:25;4.67;;;3.40;;
26014;SDS011;13793;55.388;37.844;2023-07-24T06:05:54;9.28;;;7.28;;
26014;SDS011;13793;55.388;37.844;2023-07-24T06:08:35;6.00;;;4.60;;
26014;SDS011;13793;55.388;37.844;2023-07-24T06:11:06;7.95;;;6.00;;
26014;SDS011;13793;55.388;37.844;2023-07-24T06:13:47;3.10;;;2.42;;
26014;SDS011;13793;55.388;37.844;2023-07-24T06:16:17;4.55;;;3.85;;
26014;SDS011;13793;55.388;37.844;2023-07-24T06:18:58;4.50;;;2.90;;
26014;SDS011;13793;55.388;37.844;2023-07-24T06:21:29;3.37;;;2.10;;
26014;SDS011;13793;55.388;37.844;2023-07-24T06:24:10;2.10;;;1.35;;
26014;SDS011;13793;55.388;37.844;2023-07-24T06:26:41;2.30;;;1.42;;
26014;SDS011;13793;55.388;37.844;2023-07-24T06:29:22;3.33;;;2.12;;
26014;SDS011;13793;55.388;37.844;2023-07-24T06:31:53;5.78;;;4.20;;
26014;SDS011;13793;55.388;37.844;2023-07-24T06:34:34;4.15;;;2.17;;
26014;SDS011;13793;55.388;37.844;2023-07-24T06:37:15;2.50;;;1.30;;
26014;SDS011;13793;55.388;37.844;2023-07-24T06:39:46;3.98;;;1.60;;
26014;SDS011;13793;55.388;37.844;2023-07-24T06:42:27;1.30;;;1.20;;
26014;SDS011;13793;55.388;37.844;2023-07-24T06:44:58;1.95;;;1.30;;
26014;SDS011;13793;55.388;37.844;2023-07-24T06:47:39;3.10;;;1.52;;
26014;SDS011;13793;55.388;37.844;2023-07-24T06:50:10;3.02;;;1.10;;
26014;SDS011;13793;55.388;37.844;2023-07-24T06:52:51;1.50;;;1.20;;
26014;SDS011;13793;55.388;37.844;2023-07-24T06:55:22;2.62;;;0.95;;
26014;SDS011;13793;55.388;37.844;2023-07-24T06:58:03;1.72;;;1.37;;
26014;SDS011;13793;55.388;37.844;2023-07-24T07:00:34;6.17;;;4.15;;
26014;SDS011;13793;55.388;37.844;2023-07-24T07:03:15;5.17;;;2.50;;
26014;SDS011;13793;55.388;37.844;2023-07-24T07:05:46;3.00;;;1.67;;
26014;SDS011;13793;55.388;37.844;2023-07-24T07:08:27;2.58;;;1.22;;
26014;SDS011;13793;55.388;37.844;2023-07-24T07:10:59;3.27;;;1.67;;
26014;SDS011;13793;55.388;37.844;2023-07-24T07:13:40;1.90;;;1.40;;
26014;SDS011;13793;55.388;37.844;2023-07-24T07:16:22;3.67;;;1.30;;
26014;SDS011;13793;55.388;37.844;2023-07-24T07:18:52;2.30;;;1.10;;
26014;SDS011;13793;55.388;37.844;2023-07-24T07:21:33;9.98;;;8.98;;
26014;SDS011;13793;55.388;37.844;2023-07-24T07:24:04;5.17;;;3.12;;
26014;SDS011;13793;55.388;37.844;2023-07-24T07:26:46;3.10;;;1.87;;
26014;SDS011;13793;55.388;37.844;2023-07-24T07:29:17;4.30;;;2.42;;
26014;SDS011;13793;55.388;37.844;2023-07-24T07:32:04;7.72;;;4.80;;
26014;SDS011;13793;55.388;37.844;2023-07-24T07:34:36;4.85;;;2.30;;
26014;SDS011;13793;55.388;37.844;2023-07-24T07:37:17;7.20;;;3.05;;
26014;SDS011;13793;55.388;37.844;2023-07-24T07:39:48;7.85;;;5.25;;
26014;SDS011;13793;55.388;37.844;2023-07-24T07:42:29;8.93;;;5.58;;
26014;SDS011;13793;55.388;37.844;2023-07-24T07:45:00;4.17;;;2.70;;
26014;SDS011;13793;55.388;37.844;2023-07-24T07:47:41;4.08;;;2.70;;
26014;SDS011;13793;55.388;37.844;2023-07-24T07:50:12;4.20;;;1.60;;
26014;SDS011;13793;55.388;37.844;2023-07-24T07:52:53;3.17;;;1.60;;
26014;SDS011;13793;55.388;37.844;2023-07-24T07:55:24;3.37;;;2.08;;
26014;SDS011;13793;55.388;37.844;2023-07-24T07:58:05;6.62;;;4.15;;
26014;SDS011;13793;55.388;37.844;2023-07-24T08:00:37;11.10;;;7.30;;
26014;SDS011;13793;55.388;37.844;2023-07-24T08:03:24;8.63;;;6.47;;
26014;SDS011;13793;55.388;37.844;2023-07-24T08:05:58;4.65;;;3.50;;
26014;SDS011;13793;55.388;37.844;2023-07-24T08:08:39;3.08;;;1.75;;
26014;SDS011;13793;55.388;37.844;2023-07-24T08:11:10;2.12;;;1.70;;
26014;SDS011;13793;55.388;37.844;2023-07-24T08:13:52;3.47;;;1.77;;
26014;SDS011;13793;55.388;37.844;2023-07-24T08:16:23;2.42;;;1.72;;
26014;SDS011;13793;55.388;37.844;2023-07-24T08:19:04;1.70;;;1.22;;
26014;SDS011;13793;55.388;37.844;2023-07-24T08:21:35;2.37;;;1.37;;
26014;SDS011;13793;55.388;37.844;2023-07-24T08:24:17;3.85;;;2.30;;
26014;SDS011;13793;55.388;37.844;2023-07-24T08:26:48;2.45;;;1.70;;
26014;SDS011;13793;55.388;37.844;2023-07-24T08:29:29;2.92;;;1.90;;
26014;SDS011;13793;55.388;37.844;2023-07-24T08:32:00;5.00;;;1.98;;
26014;SDS011;13793;55.388;37.844;2023-07-24T08:34:41;4.30;;;2.02;;
26014;SDS011;13793;55.388;37.844;2023-07-24T08:37:12;3.83;;;2.27;;
26014;SDS011;13793;55.388;37.844;2023-07-24T08:39:53;3.30;;;2.25;;
26014;SDS011;13793;55.388;37.844;2023-07-24T08:42:24;3.92;;;2.47;;
26014;SDS011;13793;55.388;37.844;2023-07-24T08:45:08;4.75;;;2.45;;
26014;SDS011;13793;55.388;37.844;2023-07-24T08:47:52;5.25;;;3.80;;
26014;SDS011;13793;55.388;37.844;2023-07-24T08:50:23;5.35;;;4.22;;
26014;SDS011;13793;55.388;37.844;2023-07-24T08:53:05;3.85;;;3.42;;
26014;SDS011;13793;55.388;37.844;2023-07-24T08:55:37;4.50;;;2.98;;
26014;SDS011;13793;55.388;37.844;2023-07-24T08:58:18;4.47;;;3.47;;
26014;SDS011;13793;55.388;37.844;2023-07-24T09:00:49;6.00;;;4.28;;
26014;SDS011;13793;55.388;37.844;2023-07-24T09:03:31;9.15;;;5.60;;
26014;SDS011;13793;55.388;37.844;2023-07-24T09:06:12;6.97;;;5.28;;
26014;SDS011;13793;55.388;37.844;2023-07-24T09:08:43;7.28;;;4.53;;
26014;SDS011;13793;55.388;37.844;2023-07-24T09:11:26;3.90;;;3.00;;
26014;SDS011;13793;55.388;37.844;2023-07-24T09:13:56;4.50;;;3.20;;
26014;SDS011;13793;55.388;37.844;2023-07-24T09:16:44;4.10;;;3.70;;
26014;SDS011;13793;55.388;37.844;2023-07-24T09:19:17;4.22;;;3.62;;
26014;SDS011;13793;55.388;37.844;2023-07-24T09:22:08;5.33;;;4.17;;
26014;SDS011;13793;55.388;37.844;2023-07-24T09:24:50;5.90;;;3.52;;
26014;SDS011;13793;55.388;37.844;2023-07-24T09:27:37;6.83;;;3.08;;
26014;SDS011;13793;55.388;37.844;2023-07-24T09:30:12;5.00;;;4.08;;
26014;SDS011;13793;55.388;37.844;2023-07-24T09:32:53;6.37;;;4.58;;
26014;SDS011;13793;55.388;37.844;2023-07-24T09:35:25;9.55;;;6.15;;
26014;SDS011;13793;55.388;37.844;2023-07-24T09:38:07;6.83;;;4.72;;
26014;SDS011;13793;55.388;37.844;2023-07-24T09:40:40;4.70;;;3.72;;
26014;SDS011;13793;55.388;37.844;2023-07-24T09:43:24;4.03;;;2.50;;
26014;SDS011;13793;55.388;37.844;2023-07-24T09:46:05;4.00;;;2.20;;
26014;SDS011;13793;55.388;37.844;2023-07-24T09:48:37;4.28;;;2.30;;
26014;SDS011;13793;55.388;37.844;2023-07-24T09:51:18;3.25;;;2.22;;
26014;SDS011;13793;55.388;37.844;2023-07-24T09:56:33;5.53;;;3.55;;
26014;SDS011;13793;55.388;37.844;2023-07-24T09:59:04;7.10;;;5.67;;
26014;SDS011;13793;55.388;37.844;2023-07-24T10:01:46;3.45;;;2.90;;
26014;SDS011;13793;55.388;37.844;2023-07-24T10:04:32;2.37;;;2.05;;
26014;SDS011;13793;55.388;37.844;2023-07-24T10:07:23;2.80;;;2.30;;
26014;SDS011;13793;55.388;37.844;2023-07-24T10:09:54;2.40;;;2.15;;
26014;SDS011;13793;55.388;37.844;2023-07-24T10:12:42;3.27;;;1.98;;
26014;SDS011;13793;55.388;37.844;2023-07-24T10:15:13;3.17;;;2.10;;
26014;SDS011;13793;55.388;37.844;2023-07-24T10:18:01;4.17;;;2.37;;
26014;SDS011;13793;55.388;37.844;2023-07-24T10:20:37;2.72;;;2.30;;
26014;SDS011;13793;55.388;37.844;2023-07-24T10:23:19;2.65;;;2.10;;
26014;SDS011;13793;55.388;37.844;2023-07-24T10:25:50;3.05;;;2.27;;
26014;SDS011;13793;55.388;37.844;2023-07-24T10:28:34;4.50;;;2.77;;
26014;SDS011;13793;55.388;37.844;2023-07-24T10:31:23;7.80;;;6.37;;
26014;SDS011;13793;55.388;37.844;2023-07-24T10:34:05;7.92;;;6.37;;
26014;SDS011;13793;55.388;37.844;2023-07-24T10:36:46;4.90;;;3.33;;
26014;SDS011;13793;55.388;37.844;2023-07-24T10:39:17;3.90;;;2.92;;
26014;SDS011;13793;55.388;37.844;2023-07-24T10:42:04;7.58;;;6.83;;
26014;SDS011;13793;55.388;37.844;2023-07-24T10:44:32;3.33;;;2.67;;
26014;SDS011;13793;55.388;37.844;2023-07-24T10:47:14;3.45;;;2.72;;
26014;SDS011;13793;55.388;37.844;2023-07-24T10:49:49;3.02;;;2.72;;
26014;SDS011;13793;55.388;37.844;2023-07-24T10:52:30;4.25;;;2.70;;
26014;SDS011;13793;55.388;37.844;2023-07-24T10:55:04;6.17;;;2.90;;
26014;SDS011;13793;55.388;37.844;2023-07-24T10:57:46;3.55;;;2.42;;
26014;SDS011;13793;55.388;37.844;2023-07-24T11:00:17;4.08;;;3.58;;
26014;SDS011;13793;55.388;37.844;2023-07-24T11:03:04;3.35;;;2.75;;
26014;SDS011;13793;55.388;37.844;2023-07-24T11:05:41;5.00;;;2.62;;
26014;SDS011;13793;55.388;37.844;2023-07-24T11:08:23;2.55;;;2.35;;
26014;SDS011;13793;55.388;37.844;2023-07-24T11:10:55;5.28;;;2.70;;
26014;SDS011;13793;55.388;37.844;2023-07-24T11:13:37;4.30;;;3.10;;
26014;SDS011;13793;55.388;37.844;2023-07-24T11:16:08;5.75;;;3.83;;
26014;SDS011;13793;55.388;37.844;2023-07-24T11:18:49;4.42;;;3.10;;
26014;SDS011;13793;55.388;37.844;2023-07-24T11:21:35;4.10;;;3.22;;
26014;SDS011;13793;55.388;37.844;2023-07-24T11:24:06;4.47;;;3.35;;
26014;SDS011;13793;55.388;37.844;2023-07-24T11:26:50;6.08;;;3.30;;
26014;SDS011;13793;55.388;37.844;2023-07-24T11:29:21;7.95;;;4.75;;
26014;SDS011;13793;55.388;37.844;2023-07-24T11:32:03;5.60;;;4.22;;
26014;SDS011;13793;55.388;37.844;2023-07-24T11:34:34;6.45;;;4.40;;
26014;SDS011;13793;55.388;37.844;2023-07-24T11:37:15;4.65;;;4.03;;
26014;SDS011;13793;55.388;37.844;2023-07-24T11:39:57;4.92;;;3.20;;
26014;SDS011;13793;55.388;37.844;2023-07-24T11:42:40;4.40;;;3.55;;
26014;SDS011;13793;55.388;37.844;2023-07-24T11:45:13;4.92;;;3.52;;
26014;SDS011;13793;55.388;37.844;2023-07-24T11:47:55;4.22;;;3.62;;
26014;SDS011;13793;55.388;37.844;2023-07-24T11:50:26;6.42;;;3.37;;
26014;SDS011;13793;55.388;37.844;2023-07-24T11:53:07;5.15;;;3.92;;
26014;SDS011;13793;55.388;37.844;2023-07-24T11:55:52;4.92;;;3.80;;
26014;SDS011;13793;55.388;37.844;2023-07-24T11:58:27;4.33;;;3.27;;
26014;SDS011;13793;55.388;37.844;2023-07-24T12:01:08;4.75;;;3.75;;
26014;SDS011;13793;55.388;37.844;2023-07-24T12:03:40;6.05;;;3.72;;
26014;SDS011;13793;55.388;37.844;2023-07-24T12:06:21;4.60;;;3.58;;
26014;SDS011;13793;55.388;37.844;2023-07-24T12:09:00;6.97;;;5.40;;
26014;SDS011;13793;55.388;37.844;2023-07-24T12:11:43;6.30;;;4.60;;
26014;SDS011;13793;55.388;37.844;2023-07-24T12:14:14;7.55;;;4.95;;
26014;SDS011;13793;55.388;37.844;2023-07-24T12:17:02;6.05;;;5.45;;
26014;SDS011;13793;55.388;37.844;2023-07-24T12:19:35;6.47;;;5.30;;
26014;SDS011;13793;55.388;37.844;2023-07-24T12:22:16;5.90;;;4.95;;
26014;SDS011;13793;55.388;37.844;2023-07-24T12:24:47;5.08;;;4.33;;
26014;SDS011;13793;55.388;37.844;2023-07-24T12:27:28;5.33;;;4.78;;
26014;SDS011;13793;55.388;37.844;2023-07-24T12:30:00;4.58;;;4.12;;
26014;SDS011;13793;55.388;37.844;2023-07-24T12:32:41;7.40;;;4.70;;
26014;SDS011;13793;55.388;37.844;2023-07-24T12:35:12;5.95;;;4.80;;
26014;SDS011;13793;55.388;37.844;2023-07-24T12:37:55;6.40;;;4.78;;
26014;SDS011;13793;55.388;37.844;2023-07-24T12:40:26;5.97;;;4.97;;
26014;SDS011;13793;55.388;37.844;2023-07-24T12:43:07;7.00;;;5.10;;
26014;SDS011;13793;55.388;37.844;2023-07-24T12:45:38;6.58;;;5.92;;
26014;SDS011;13793;55.388;37.844;2023-07-24T12:48:19;6.58;;;5.78;;
26014;SDS011;13793;55.388;37.844;2023-07-24T12:50:50;5.85;;;5.35;;
26014;SDS011;13793;55.388;37.844;2023-07-24T12:53:31;7.65;;;5.50;;
26014;SDS011;13793;55.388;37.844;2023-07-24T12:56:02;5.58;;;4.92;;
26014;SDS011;13793;55.388;37.844;2023-07-24T12:58:43;6.80;;;5.65;;
26014;SDS011;13793;55.388;37.844;2023-07-24T13:01:14;6.45;;;5.80;;
26014;SDS011;13793;55.388;37.844;2023-07-24T13:03:55;6.10;;;5.47;;
26014;SDS011;13793;55.388;37.844;2023-07-24T13:06:26;7.75;;;5.80;;
26014;SDS011;13793;55.388;37.844;2023-07-24T13:09:07;5.92;;;5.12;;
26014;SDS011;13793;55.388;37.844;2023-07-24T13:11:38;7.28;;;5.58;;
26014;SDS011;13793;55.388;37.844;2023-07-24T13:14:19;7.58;;;5.67;;
26014;SDS011;13793;55.388;37.844;2023-07-24T13:16:52;9.25;;;5.95;;
26014;SDS011;13793;55.388;37.844;2023-07-24T13:19:33;7.33;;;5.72;;
26014;SDS011;13793;55.388;37.844;2023-07-24T13:22:04;7.58;;;6.70;;
26014;SDS011;13793;55.388;37.844;2023-07-24T13:24:45;6.92;;;6.20;;
26014;SDS011;13793;55.388;37.844;2023-07-24T13:27:17;6.95;;;6.20;;
26014;SDS011;13793;55.388;37.844;2023-07-24T13:30:17;7.45;;;5.80;;
26014;SDS011;13793;55.388;37.844;2023-07-24T13:32:48;6.72;;;5.75;;
26014;SDS011;13793;55.388;37.844;2023-07-24T13:35:29;6.90;;;6.05;;
26014;SDS011;13793;55.388;37.844;2023-07-24T13:38:10;7.05;;;6.35;;
26014;SDS011;13793;55.388;37.844;2023-07-24T13:40:41;9.98;;;6.75;;
26014;SDS011;13793;55.388;37.844;2023-07-24T13:43:22;8.20;;;7.37;;
26014;SDS011;13793;55.388;37.844;2023-07-24T13:45:53;9.90;;;7.95;;
26014;SDS011;13793;55.388;37.844;2023-07-24T13:48:34;10.40;;;9.20;;
26014;SDS011;13793;55.388;37.844;2023-07-24T13:51:05;9.25;;;8.10;;
26014;SDS011;13793;55.388;37.844;2023-07-24T13:53:46;8.85;;;7.95;;
26014;SDS011;13793;55.388;37.844;2023-07-24T13:56:18;12.33;;;8.50;;
26014;SDS011;13793;55.388;37.844;2023-07-24T13:59:00;12.58;;;9.28;;
26014;SDS011;13793;55.388;37.844;2023-07-24T14:01:32;9.70;;;7.92;;
26014;SDS011;13793;55.388;37.844;2023-07-24T14:04:13;8.05;;;7.25;;
26014;SDS011;13793;55.388;37.844;2023-07-24T14:06:44;7.55;;;6.67;;
26014;SDS011;13793;55.388;37.844;2023-07-24T14:09:25;8.15;;;7.08;;
26014;SDS011;13793;55.388;37.844;2023-07-24T14:11:57;7.40;;;6.50;;
26014;SDS011;13793;55.388;37.844;2023-07-24T14:14:37;8.63;;;6.42;;
26014;SDS011;13793;55.388;37.844;2023-07-24T14:17:09;8.35;;;6.20;;
26014;SDS011;13793;55.388;37.844;2023-07-24T14:19:50;7.12;;;6.20;;
26014;SDS011;13793;55.388;37.844;2023-07-24T14:22:21;7.33;;;5.97;;
26014;SDS011;13793;55.388;37.844;2023-07-24T14:25:02;8.83;;;5.60;;
26014;SDS011;13793;55.388;37.844;2023-07-24T14:27:34;6.37;;;5.55;;
26014;SDS011;13793;55.388;37.844;2023-07-24T14:30:15;5.47;;;4.97;;
26014;SDS011;13793;55.388;37.844;2023-07-24T14:32:46;7.22;;;5.80;;
26014;SDS011;13793;55.388;37.844;2023-07-24T14:35:28;7.47;;;5.30;;
26014;SDS011;13793;55.388;37.844;2023-07-24T14:38:01;6.53;;;5.40;;
26014;SDS011;13793;55.388;37.844;2023-07-24T14:40:42;6.72;;;5.75;;
26014;SDS011;13793;55.388;37.844;2023-07-24T14:43:13;6.45;;;5.62;;
26014;SDS011;13793;55.388;37.844;2023-07-24T14:45:53;6.42;;;5.37;;
26014;SDS011;13793;55.388;37.844;2023-07-24T14:48:24;6.22;;;5.62;;
26014;SDS011;13793;55.388;37.844;2023-07-24T14:51:06;7.08;;;5.40;;
26014;SDS011;13793;55.388;37.844;2023-07-24T14:53:36;7.92;;;4.90;;
26014;SDS011;13793;55.388;37.844;2023-07-24T14:56:18;7.00;;;5.90;;
26014;SDS011;13793;55.388;37.844;2023-07-24T14:58:50;6.62;;;5.67;;
26014;SDS011;13793;55.388;37.844;2023-07-24T15:01:31;6.92;;;5.45;;
26014;SDS011;13793;55.388;37.844;2023-07-24T15:04:02;8.85;;;5.67;;
26014;SDS011;13793;55.388;37.844;2023-07-24T15:06:43;6.85;;;4.47;;
26014;SDS011;13793;55.388;37.844;2023-07-24T15:09:14;5.85;;;4.80;;
26014;SDS011;13793;55.388;37.844;2023-07-24T15:11:56;7.28;;;4.65;;
26014;SDS011;13793;55.388;37.844;2023-07-24T15:14:27;8.10;;;4.58;;
26014;SDS011;13793;55.388;37.844;2023-07-24T15:17:07;5.62;;;4.25;;
26014;SDS011;13793;55.388;37.844;2023-07-24T15:19:40;7.00;;;4.40;;
26014;SDS011;13793;55.388;37.844;2023-07-24T15:22:21;5.25;;;4.17;;
26014;SDS011;13793;55.388;37.844;2023-07-24T15:24:52;7.05;;;4.72;;
26014;SDS011;13793;55.388;37.844;2023-07-24T15:27:33;5.60;;;4.37;;
26014;SDS011;13793;55.388;37.844;2023-07-24T15:30:04;4.92;;;4.40;;
26014;SDS011;13793;55.388;37.844;2023-07-24T15:32:46;9.00;;;5.12;;
26014;SDS011;13793;55.388;37.844;2023-07-24T15:35:17;7.03;;;5.35;;
26014;SDS011;13793;55.388;37.844;2023-07-24T15:37:58;6.35;;;4.97;;